Ripon, Wisconsin
Current Conditions -  °F | °C
As of 7:53 AM on Monday 26 Jan 2015 (Local Time) from KOSH Reporting Station
Overcast Overcast  
Wind Chill: -14°   Ceiling: 6500
Heat Index: -9°   Visibility: 10mi
Dew Point: -12°   Wind: 7mph
Humidity: 77%   Direction: 160°SSE
Pressure: 29.91"   Gusts: NA
Location:  43.85°N, 88.84°W
Report Text: KOSH 261353Z 16006KT 10SM BKN065 OVC100 M09/M12 A2991 RMK AO2 SLP152 T10891122
Loading
Personal Weather Stations






























Interactive Weather Map New forecast layout! Learn more

10-Day Weather Forecast

Advertisements
Track Severe Weather on mobile